Главная страница
METAR-TAF:

METAR-TAF

Аэропорты :

Орск, Россия

широта: 51-04-18N, долгота: 058-35-48E, высота над уровнем моря: 277 м

Текущие метеонаблюдения

Эта сводка был подготовлена 20 минут назад, в 22:00 UTC
Ветер 4 Узел от южный-юго-западный
Температура -10°C
Влажность 85%
Давление 1021 hPa
Видимость: 6000 м
Сплошная облачность на высоте 2700 фута
небольшой снег

METAR: UWOR 222200Z 21002MPS 6000 -SN OVC027 M10/M12 Q1021 R25/810255 NOSIG RMK QFE742/0990

Время: 03:20 (22:20 UTC)

Прогноз

Эта сводка был подготовлена 2 часа и 29 минут назад, в 19:51 UTC
Прогноз действительный с 22-го 21 UTC до 23-го 06 UTC
Ветер 8 Узел от юго-западный
Видимость: 3100 м
Рассеянная облачность на высоте 1100 фута
небольшой снег, дымка
временами
С 22-го 21 UTC до 23-го 03 UTC
Ветер 6 Узел от южный-юго-западный
Видимость: 1000 м
Сплошная облачность на высоте 300 фута
дымка

TAF: UWOR 221951Z 2221/2306 22004MPS 3100 -SN BR BKN011 TEMPO 2221/2303 20003MPS 1000 BR OVC003

Метеонаблюдения и прогнозы для более 4000 аэропортов (сводки METAR и TAF).

Имеющиеся станции представлены на карте желтыми и красными точками.

Чтобы увидеть название станции, наведите на нее мышь.

Затем щелкните, чтобы увидеть метеонаблюдения и метеопрогнозы.

Управление картой: чтобы увеличить масштаб, щелкните зеленые кнопки с черным крестиком; чтобы уменьшить масштаб, щелкните зеленую кнопку с тире; для просмотра соседних карт щелкайте зеленые стрелки.


METAR-TAF: